Hlavní strana
METAR-TAF:

METAR-TAF

Letiště :

Letiště Peking

Peking, Čína

zeměpisná šířka: 39-56N, zeměpisná délka: 116-17E, výška: 55 m

Aktuální stav počasí

Zpráva byla vytvořena před 39 minutami, v 18:30 UTC
Severní vítr 4 kt
Teplota 26°C
Vlhkost vzduchu 61%
Tlak 1013 hPa
Viditelnost 10 km a více
Žádná oblačnost pod 1500 m, nevyskytují se cumulonimby.

METAR: ZBAA 151830Z 01002MPS CAVOK 26/18 Q1013 NOSIG

Čas: 03:09 (19:09 UTC)

Předpověď počasí

Zpráva byla vytvořena před 3 hodinami a 49 minutami, v 15:20 UTC
Předpověď platná od 15 v 18 UTC do 16 v 18 UTC
Jihovýchodní vítr 8 kt
Viditelnost: 6000 m

TAF: ZBAA 151520Z 1518/1618 14004MPS 6000 NSC TX31/1607Z TN21/1521Z

Stav a předpovědi počasí z více než 4 000 letišť (zprávy METAR a TAF).

Červené a žluté tečky na mapě představují dostupné meteorologické stanice.

Když kurzor umístíte na tečku, zobrazí se název stanice.

Pak kliknutím zobrazíte stav a předpověď počasí.

Chcete-li změnit mapu, kliknutím na zelené tlačítko se znaménkem +mapu přiblížíte, kliknutím na zelené tlačítko se znaménkem – mapu oddálíte a kliknutím na zelené šipky přejdete na sousední mapy.


METAR-TAF: